KPBG/PBG METAR and TAF weather

Enter ICAO airport designator
Station Type Date Time Source
KPBG METAR 2019/05/21 19:53 UTC NOAA

KPBG 211953Z AUTO 10SM SCT070 BKN080 17/01 A2990 RMK AO2 PK WND 28034/1921 SLP126 T01670011


Station Type Date Time Source
KPBG Decoded METAR 2019/05/21 19:53 UTC NOAA

PLATTSBURGH INTERNATIONAL AIRPORT, NY, United States (KPBG) 44-39N 073-28W
May 21, 2019 - 03:53 PM EDT / 2019.05.21 1953 UTC
Visibility: 10 mile(s):0
Sky conditions: mostly cloudy
Temperature: 62.1 F (16.7 C)
Dew Point: 34.0 F (1.1 C)
Relative Humidity: 34%
Pressure (altimeter): 29.9 in. Hg (1012 hPa)
ob: KPBG 211953Z AUTO 10SM SCT070 BKN080 17/01 A2990 RMK AO2 PK WND 28034/1921 SLP126 T01670011
cycle: 20

Station Type Date Time Source
KPBG TAF 2019/05/21 19:18 UTC NOAA

TAF KPBG 211913Z 2119/2218 31018G30KT P6SM BKN060
FM212100 32018G28KT P6SM SCT060
FM220100 32012KT P6SM SCT080
FM221000 34006KT P6SM FEW250

Example: see airport list